sensor_id;sensor_type;location;lat;lon;timestamp;temperature;humidity
37974;DHT22;23796;51.458;7.000;2023-07-16T00:02:03;20.20;86.70
37974;DHT22;23796;51.458;7.000;2023-07-16T00:04:30;20.20;86.70
37974;DHT22;23796;51.458;7.000;2023-07-16T00:06:56;20.20;86.70
37974;DHT22;23796;51.458;7.000;2023-07-16T00:09:24;20.20;86.70
37974;DHT22;23796;51.458;7.000;2023-07-16T00:11:49;20.30;86.60
37974;DHT22;23796;51.458;7.000;2023-07-16T00:14:15;20.30;86.80
37974;DHT22;23796;51.458;7.000;2023-07-16T00:16:40;20.20;86.90
37974;DHT22;23796;51.458;7.000;2023-07-16T00:19:06;20.10;87.30
37974;DHT22;23796;51.458;7.000;2023-07-16T00:21:32;20.00;87.80
37974;DHT22;23796;51.458;7.000;2023-07-16T00:23:58;19.90;88.10
37974;DHT22;23796;51.458;7.000;2023-07-16T00:26:24;19.80;88.30
37974;DHT22;23796;51.458;7.000;2023-07-16T00:28:54;19.90;88.40
37974;DHT22;23796;51.458;7.000;2023-07-16T00:31:20;19.90;88.20
37974;DHT22;23796;51.458;7.000;2023-07-16T00:33:48;20.00;88.30
37974;DHT22;23796;51.458;7.000;2023-07-16T00:36:16;20.00;88.20
37974;DHT22;23796;51.458;7.000;2023-07-16T00:38:44;20.00;88.10
37974;DHT22;23796;51.458;7.000;2023-07-16T00:41:12;20.00;88.90
37974;DHT22;23796;51.458;7.000;2023-07-16T00:43:38;20.00;90.20
37974;DHT22;23796;51.458;7.000;2023-07-16T00:46:03;19.80;91.40
37974;DHT22;23796;51.458;7.000;2023-07-16T00:48:31;19.60;92.90
37974;DHT22;23796;51.458;7.000;2023-07-16T00:50:57;19.50;93.00
37974;DHT22;23796;51.458;7.000;2023-07-16T00:53:30;19.40;93.80
37974;DHT22;23796;51.458;7.000;2023-07-16T00:55:55;19.30;94.50
37974;DHT22;23796;51.458;7.000;2023-07-16T00:58:21;19.20;95.20
37974;DHT22;23796;51.458;7.000;2023-07-16T01:00:47;19.10;95.00
37974;DHT22;23796;51.458;7.000;2023-07-16T01:03:17;19.10;95.10
37974;DHT22;23796;51.458;7.000;2023-07-16T01:08:27;19.00;95.00
37974;DHT22;23796;51.458;7.000;2023-07-16T01:10:58;18.90;95.10
37974;DHT22;23796;51.458;7.000;2023-07-16T01:13:24;18.80;95.30
37974;DHT22;23796;51.458;7.000;2023-07-16T01:15:50;18.80;95.90
37974;DHT22;23796;51.458;7.000;2023-07-16T01:18:15;18.70;96.00
37974;DHT22;23796;51.458;7.000;2023-07-16T01:20:41;18.70;96.30
37974;DHT22;23796;51.458;7.000;2023-07-16T01:30:55;18.40;96.50
37974;DHT22;23796;51.458;7.000;2023-07-16T01:33:27;18.30;96.80
37974;DHT22;23796;51.458;7.000;2023-07-16T01:35:59;18.30;97.10
37974;DHT22;23796;51.458;7.000;2023-07-16T01:38:27;18.30;97.20
37974;DHT22;23796;51.458;7.000;2023-07-16T01:40:52;18.20;97.20
37974;DHT22;23796;51.458;7.000;2023-07-16T01:43:21;18.20;97.30
37974;DHT22;23796;51.458;7.000;2023-07-16T01:45:46;18.20;97.30
37974;DHT22;23796;51.458;7.000;2023-07-16T01:48:14;18.20;97.30
37974;DHT22;23796;51.458;7.000;2023-07-16T01:50:41;18.10;97.40
37974;DHT22;23796;51.458;7.000;2023-07-16T01:53:07;18.10;97.50
37974;DHT22;23796;51.458;7.000;2023-07-16T01:55:35;18.10;97.60
37974;DHT22;23796;51.458;7.000;2023-07-16T01:58:01;18.20;97.50
37974;DHT22;23796;51.458;7.000;2023-07-16T02:00:26;18.40;96.90
37974;DHT22;23796;51.458;7.000;2023-07-16T02:02:54;18.60;96.40
37974;DHT22;23796;51.458;7.000;2023-07-16T02:05:20;18.70;96.00
37974;DHT22;23796;51.458;7.000;2023-07-16T02:07:45;18.70;95.70
37974;DHT22;23796;51.458;7.000;2023-07-16T02:10:11;18.80;95.30
37974;DHT22;23796;51.458;7.000;2023-07-16T02:12:38;18.70;95.20
37974;DHT22;23796;51.458;7.000;2023-07-16T02:15:07;18.70;95.30
37974;DHT22;23796;51.458;7.000;2023-07-16T02:17:35;18.60;95.40
37974;DHT22;23796;51.458;7.000;2023-07-16T02:20:01;18.70;95.40
37974;DHT22;23796;51.458;7.000;2023-07-16T02:22:27;18.70;94.80
37974;DHT22;23796;51.458;7.000;2023-07-16T02:24:52;18.60;94.50
37974;DHT22;23796;51.458;7.000;2023-07-16T02:27:18;18.70;94.20
37974;DHT22;23796;51.458;7.000;2023-07-16T02:29:44;18.70;93.90
37974;DHT22;23796;51.458;7.000;2023-07-16T02:32:09;18.70;94.00
37974;DHT22;23796;51.458;7.000;2023-07-16T02:34:37;18.50;94.20
37974;DHT22;23796;51.458;7.000;2023-07-16T02:37:03;18.50;94.30
37974;DHT22;23796;51.458;7.000;2023-07-16T02:39:32;18.40;94.40
37974;DHT22;23796;51.458;7.000;2023-07-16T02:42:00;18.50;94.40
37974;DHT22;23796;51.458;7.000;2023-07-16T02:44:26;18.60;94.30
37974;DHT22;23796;51.458;7.000;2023-07-16T02:46:53;18.60;94.20
37974;DHT22;23796;51.458;7.000;2023-07-16T02:49:19;18.70;94.20
37974;DHT22;23796;51.458;7.000;2023-07-16T02:51:47;18.70;94.20
37974;DHT22;23796;51.458;7.000;2023-07-16T02:54:12;18.70;94.00
37974;DHT22;23796;51.458;7.000;2023-07-16T02:56:38;18.70;94.00
37974;DHT22;23796;51.458;7.000;2023-07-16T02:59:03;18.70;93.90
37974;DHT22;23796;51.458;7.000;2023-07-16T03:01:29;18.70;93.70
37974;DHT22;23796;51.458;7.000;2023-07-16T03:03:55;18.70;93.60
37974;DHT22;23796;51.458;7.000;2023-07-16T03:06:23;18.60;93.50
37974;DHT22;23796;51.458;7.000;2023-07-16T03:08:48;18.50;93.70
37974;DHT22;23796;51.458;7.000;2023-07-16T03:11:16;18.50;93.90
37974;DHT22;23796;51.458;7.000;2023-07-16T03:13:42;18.40;94.00
37974;DHT22;23796;51.458;7.000;2023-07-16T03:16:13;18.30;94.20
37974;DHT22;23796;51.458;7.000;2023-07-16T03:18:41;18.30;94.10
37974;DHT22;23796;51.458;7.000;2023-07-16T03:21:09;18.20;94.00
37974;DHT22;23796;51.458;7.000;2023-07-16T03:23:37;18.10;94.00
37974;DHT22;23796;51.458;7.000;2023-07-16T03:26:03;18.10;94.00
37974;DHT22;23796;51.458;7.000;2023-07-16T03:28:31;18.00;93.70
37974;DHT22;23796;51.458;7.000;2023-07-16T03:30:59;18.00;93.80
37974;DHT22;23796;51.458;7.000;2023-07-16T03:33:24;18.00;93.70
37974;DHT22;23796;51.458;7.000;2023-07-16T03:35:50;18.00;93.30
37974;DHT22;23796;51.458;7.000;2023-07-16T03:38:16;17.90;92.80
37974;DHT22;23796;51.458;7.000;2023-07-16T03:40:49;17.90;92.40
37974;DHT22;23796;51.458;7.000;2023-07-16T03:43:16;17.80;91.90
37974;DHT22;23796;51.458;7.000;2023-07-16T03:45:45;17.80;91.60
37974;DHT22;23796;51.458;7.000;2023-07-16T03:48:10;17.80;91.30
37974;DHT22;23796;51.458;7.000;2023-07-16T03:50:36;17.80;91.10
37974;DHT22;23796;51.458;7.000;2023-07-16T03:53:02;17.80;90.70
37974;DHT22;23796;51.458;7.000;2023-07-16T03:55:28;17.70;90.20
37974;DHT22;23796;51.458;7.000;2023-07-16T03:57:54;17.70;89.60
37974;DHT22;23796;51.458;7.000;2023-07-16T04:00:20;17.70;88.90
37974;DHT22;23796;51.458;7.000;2023-07-16T04:02:46;17.70;88.70
37974;DHT22;23796;51.458;7.000;2023-07-16T04:05:11;17.70;88.30
37974;DHT22;23796;51.458;7.000;2023-07-16T04:07:37;17.70;88.00
37974;DHT22;23796;51.458;7.000;2023-07-16T04:10:03;17.70;87.80
37974;DHT22;23796;51.458;7.000;2023-07-16T04:12:28;17.70;87.50
37974;DHT22;23796;51.458;7.000;2023-07-16T04:14:57;17.70;87.40
37974;DHT22;23796;51.458;7.000;2023-07-16T04:17:24;17.70;87.50
37974;DHT22;23796;51.458;7.000;2023-07-16T04:19:49;17.70;87.30
37974;DHT22;23796;51.458;7.000;2023-07-16T04:22:17;17.70;87.10
37974;DHT22;23796;51.458;7.000;2023-07-16T04:24:43;17.60;87.00
37974;DHT22;23796;51.458;7.000;2023-07-16T04:27:09;17.70;86.70
37974;DHT22;23796;51.458;7.000;2023-07-16T04:29:34;17.70;86.80
37974;DHT22;23796;51.458;7.000;2023-07-16T04:32:02;17.70;86.30
37974;DHT22;23796;51.458;7.000;2023-07-16T04:34:28;17.70;85.80
37974;DHT22;23796;51.458;7.000;2023-07-16T04:36:56;17.70;85.60
37974;DHT22;23796;51.458;7.000;2023-07-16T04:39:21;17.70;85.40
37974;DHT22;23796;51.458;7.000;2023-07-16T04:41:47;17.70;85.30
37974;DHT22;23796;51.458;7.000;2023-07-16T04:44:15;17.70;85.00
37974;DHT22;23796;51.458;7.000;2023-07-16T04:46:40;17.70;84.70
37974;DHT22;23796;51.458;7.000;2023-07-16T04:49:06;17.70;84.60
37974;DHT22;23796;51.458;7.000;2023-07-16T04:51:31;17.70;84.60
37974;DHT22;23796;51.458;7.000;2023-07-16T04:53:57;17.70;84.60
37974;DHT22;23796;51.458;7.000;2023-07-16T04:56:25;17.80;84.40
37974;DHT22;23796;51.458;7.000;2023-07-16T04:58:51;17.80;84.40
37974;DHT22;23796;51.458;7.000;2023-07-16T05:01:16;17.80;84.30
37974;DHT22;23796;51.458;7.000;2023-07-16T05:03:45;17.80;83.70
37974;DHT22;23796;51.458;7.000;2023-07-16T05:06:11;17.80;83.80
37974;DHT22;23796;51.458;7.000;2023-07-16T05:08:37;17.80;83.70
37974;DHT22;23796;51.458;7.000;2023-07-16T05:11:02;17.80;83.20
37974;DHT22;23796;51.458;7.000;2023-07-16T05:13:28;17.80;83.20
37974;DHT22;23796;51.458;7.000;2023-07-16T05:15:54;17.80;83.30
37974;DHT22;23796;51.458;7.000;2023-07-16T05:18:19;17.90;83.30
37974;DHT22;23796;51.458;7.000;2023-07-16T05:20:49;17.90;83.00
37974;DHT22;23796;51.458;7.000;2023-07-16T05:23:15;17.90;83.20
37974;DHT22;23796;51.458;7.000;2023-07-16T05:25:50;18.00;83.20
37974;DHT22;23796;51.458;7.000;2023-07-16T05:28:17;18.00;83.20
37974;DHT22;23796;51.458;7.000;2023-07-16T05:30:43;18.00;83.30
37974;DHT22;23796;51.458;7.000;2023-07-16T05:33:12;18.00;83.30
37974;DHT22;23796;51.458;7.000;2023-07-16T05:35:41;18.10;83.10
37974;DHT22;23796;51.458;7.000;2023-07-16T05:38:07;18.10;83.30
37974;DHT22;23796;51.458;7.000;2023-07-16T05:40:33;18.10;82.70
37974;DHT22;23796;51.458;7.000;2023-07-16T05:42:58;18.10;82.60
37974;DHT22;23796;51.458;7.000;2023-07-16T05:45:24;18.20;82.10
37974;DHT22;23796;51.458;7.000;2023-07-16T05:47:52;18.20;82.20
37974;DHT22;23796;51.458;7.000;2023-07-16T05:50:17;18.20;81.70
37974;DHT22;23796;51.458;7.000;2023-07-16T05:52:45;18.20;81.70
37974;DHT22;23796;51.458;7.000;2023-07-16T05:55:13;18.30;81.40
37974;DHT22;23796;51.458;7.000;2023-07-16T05:57:41;18.30;81.00
37974;DHT22;23796;51.458;7.000;2023-07-16T06:00:08;18.30;80.30
37974;DHT22;23796;51.458;7.000;2023-07-16T06:02:36;18.30;79.90
37974;DHT22;23796;51.458;7.000;2023-07-16T06:05:02;18.40;80.00
37974;DHT22;23796;51.458;7.000;2023-07-16T06:07:30;18.40;79.40
37974;DHT22;23796;51.458;7.000;2023-07-16T06:09:57;18.40;79.60
37974;DHT22;23796;51.458;7.000;2023-07-16T06:12:23;18.40;79.80
37974;DHT22;23796;51.458;7.000;2023-07-16T06:14:51;18.50;79.40
37974;DHT22;23796;51.458;7.000;2023-07-16T06:17:16;18.50;79.10
37974;DHT22;23796;51.458;7.000;2023-07-16T06:19:42;18.50;78.90
37974;DHT22;23796;51.458;7.000;2023-07-16T06:22:08;18.50;78.90
37974;DHT22;23796;51.458;7.000;2023-07-16T06:24:36;18.50;78.40
37974;DHT22;23796;51.458;7.000;2023-07-16T06:27:02;18.50;78.10
37974;DHT22;23796;51.458;7.000;2023-07-16T06:29:27;18.60;77.70
37974;DHT22;23796;51.458;7.000;2023-07-16T06:31:57;18.60;77.80
37974;DHT22;23796;51.458;7.000;2023-07-16T06:34:24;18.60;77.20
37974;DHT22;23796;51.458;7.000;2023-07-16T06:36:50;18.60;77.00
37974;DHT22;23796;51.458;7.000;2023-07-16T06:39:15;18.70;77.00
37974;DHT22;23796;51.458;7.000;2023-07-16T06:41:41;18.70;77.00
37974;DHT22;23796;51.458;7.000;2023-07-16T06:44:06;18.70;77.20
37974;DHT22;23796;51.458;7.000;2023-07-16T06:46:32;18.80;76.80
37974;DHT22;23796;51.458;7.000;2023-07-16T06:48:57;18.80;76.50
37974;DHT22;23796;51.458;7.000;2023-07-16T06:51:23;19.00;76.10
37974;DHT22;23796;51.458;7.000;2023-07-16T06:53:49;18.90;75.50
37974;DHT22;23796;51.458;7.000;2023-07-16T06:56:17;18.90;74.90
37974;DHT22;23796;51.458;7.000;2023-07-16T06:58:42;18.90;75.10
37974;DHT22;23796;51.458;7.000;2023-07-16T07:01:08;18.90;75.30
37974;DHT22;23796;51.458;7.000;2023-07-16T07:03:33;18.90;75.10
37974;DHT22;23796;51.458;7.000;2023-07-16T07:06:03;18.90;75.00
37974;DHT22;23796;51.458;7.000;2023-07-16T07:08:29;18.90;74.70
37974;DHT22;23796;51.458;7.000;2023-07-16T07:10:55;18.90;75.20
37974;DHT22;23796;51.458;7.000;2023-07-16T07:13:20;18.90;75.30
37974;DHT22;23796;51.458;7.000;2023-07-16T07:15:46;18.90;75.10
37974;DHT22;23796;51.458;7.000;2023-07-16T07:18:12;19.00;75.50
37974;DHT22;23796;51.458;7.000;2023-07-16T07:20:41;19.10;74.70
37974;DHT22;23796;51.458;7.000;2023-07-16T07:23:09;19.10;74.50
37974;DHT22;23796;51.458;7.000;2023-07-16T07:25:37;19.10;74.60
37974;DHT22;23796;51.458;7.000;2023-07-16T07:28:03;19.20;74.40
37974;DHT22;23796;51.458;7.000;2023-07-16T07:30:29;19.20;74.10
37974;DHT22;23796;51.458;7.000;2023-07-16T07:32:54;19.20;74.00
37974;DHT22;23796;51.458;7.000;2023-07-16T07:35:22;19.30;73.60
37974;DHT22;23796;51.458;7.000;2023-07-16T07:37:48;19.30;73.10
37974;DHT22;23796;51.458;7.000;2023-07-16T07:40:14;19.30;73.30
37974;DHT22;23796;51.458;7.000;2023-07-16T07:42:39;19.40;73.20
37974;DHT22;23796;51.458;7.000;2023-07-16T07:45:08;19.50;73.20
37974;DHT22;23796;51.458;7.000;2023-07-16T07:47:33;19.50;72.80
37974;DHT22;23796;51.458;7.000;2023-07-16T07:49:59;19.50;72.60
37974;DHT22;23796;51.458;7.000;2023-07-16T07:52:27;19.60;72.10
37974;DHT22;23796;51.458;7.000;2023-07-16T07:54:52;19.60;72.10
37974;DHT22;23796;51.458;7.000;2023-07-16T07:57:20;19.70;72.10
37974;DHT22;23796;51.458;7.000;2023-07-16T07:59:47;19.70;72.20
37974;DHT22;23796;51.458;7.000;2023-07-16T08:02:13;19.70;71.90
37974;DHT22;23796;51.458;7.000;2023-07-16T08:04:38;19.80;71.90
37974;DHT22;23796;51.458;7.000;2023-07-16T08:07:04;19.80;71.40
37974;DHT22;23796;51.458;7.000;2023-07-16T08:09:30;19.90;71.30
37974;DHT22;23796;51.458;7.000;2023-07-16T08:11:58;20.10;70.70
37974;DHT22;23796;51.458;7.000;2023-07-16T08:14:23;20.10;70.70
37974;DHT22;23796;51.458;7.000;2023-07-16T08:16:53;20.00;70.40
37974;DHT22;23796;51.458;7.000;2023-07-16T08:19:19;20.10;70.30
37974;DHT22;23796;51.458;7.000;2023-07-16T08:21:47;20.20;70.40
37974;DHT22;23796;51.458;7.000;2023-07-16T08:24:12;20.50;69.80
37974;DHT22;23796;51.458;7.000;2023-07-16T08:26:40;20.60;69.10
37974;DHT22;23796;51.458;7.000;2023-07-16T08:29:09;20.60;68.80
37974;DHT22;23796;51.458;7.000;2023-07-16T08:31:34;20.70;68.00
37974;DHT22;23796;51.458;7.000;2023-07-16T08:34:00;20.60;68.70
37974;DHT22;23796;51.458;7.000;2023-07-16T08:36:26;20.50;68.90
37974;DHT22;23796;51.458;7.000;2023-07-16T08:38:51;20.50;69.30
37974;DHT22;23796;51.458;7.000;2023-07-16T08:41:17;20.50;69.10
37974;DHT22;23796;51.458;7.000;2023-07-16T08:43:46;20.60;68.90
37974;DHT22;23796;51.458;7.000;2023-07-16T08:46:15;20.70;69.00
37974;DHT22;23796;51.458;7.000;2023-07-16T08:48:41;21.00;67.90
37974;DHT22;23796;51.458;7.000;2023-07-16T08:51:07;21.30;67.00
37974;DHT22;23796;51.458;7.000;2023-07-16T08:53:37;21.50;65.90
37974;DHT22;23796;51.458;7.000;2023-07-16T08:56:05;21.60;65.40
37974;DHT22;23796;51.458;7.000;2023-07-16T08:58:33;21.80;65.20
37974;DHT22;23796;51.458;7.000;2023-07-16T09:01:00;22.00;64.70
37974;DHT22;23796;51.458;7.000;2023-07-16T09:03:26;22.00;64.20
37974;DHT22;23796;51.458;7.000;2023-07-16T09:05:55;22.10;64.40
37974;DHT22;23796;51.458;7.000;2023-07-16T09:08:21;22.30;63.90
37974;DHT22;23796;51.458;7.000;2023-07-16T09:10:56;22.10;64.40
37974;DHT22;23796;51.458;7.000;2023-07-16T09:13:24;21.90;64.80
37974;DHT22;23796;51.458;7.000;2023-07-16T09:15:56;21.70;65.20
37974;DHT22;23796;51.458;7.000;2023-07-16T09:18:24;21.60;65.50
37974;DHT22;23796;51.458;7.000;2023-07-16T09:20:56;21.50;65.80
37974;DHT22;23796;51.458;7.000;2023-07-16T09:23:29;21.40;66.60
37974;DHT22;23796;51.458;7.000;2023-07-16T09:25:55;21.30;66.50
37974;DHT22;23796;51.458;7.000;2023-07-16T09:28:21;21.30;67.00
37974;DHT22;23796;51.458;7.000;2023-07-16T09:30:49;21.60;66.30
37974;DHT22;23796;51.458;7.000;2023-07-16T09:33:16;21.90;65.60
37974;DHT22;23796;51.458;7.000;2023-07-16T09:35:42;22.00;64.60
37974;DHT22;23796;51.458;7.000;2023-07-16T09:38:10;22.30;64.00
37974;DHT22;23796;51.458;7.000;2023-07-16T09:40:37;22.50;63.10
37974;DHT22;23796;51.458;7.000;2023-07-16T09:43:04;22.60;63.20
37974;DHT22;23796;51.458;7.000;2023-07-16T09:45:33;22.50;62.80
37974;DHT22;23796;51.458;7.000;2023-07-16T09:47:58;22.40;63.10
37974;DHT22;23796;51.458;7.000;2023-07-16T09:50:24;22.40;63.60
37974;DHT22;23796;51.458;7.000;2023-07-16T09:52:51;22.70;62.90
37974;DHT22;23796;51.458;7.000;2023-07-16T09:55:18;23.00;62.00
37974;DHT22;23796;51.458;7.000;2023-07-16T09:57:47;23.30;61.70
37974;DHT22;23796;51.458;7.000;2023-07-16T10:00:14;23.60;61.40
37974;DHT22;23796;51.458;7.000;2023-07-16T10:02:41;23.60;61.20
37974;DHT22;23796;51.458;7.000;2023-07-16T10:05:24;23.70;61.30
37974;DHT22;23796;51.458;7.000;2023-07-16T10:07:53;23.90;60.90
37974;DHT22;23796;51.458;7.000;2023-07-16T10:10:21;24.00;58.80
37974;DHT22;23796;51.458;7.000;2023-07-16T10:13:01;23.80;59.40
37974;DHT22;23796;51.458;7.000;2023-07-16T10:15:28;23.80;59.60
37974;DHT22;23796;51.458;7.000;2023-07-16T10:17:55;23.70;59.90
37974;DHT22;23796;51.458;7.000;2023-07-16T10:20:29;23.70;59.80
37974;DHT22;23796;51.458;7.000;2023-07-16T10:22:55;23.70;60.20
37974;DHT22;23796;51.458;7.000;2023-07-16T10:27:47;23.90;59.80
37974;DHT22;23796;51.458;7.000;2023-07-16T10:30:14;23.80;59.80
37974;DHT22;23796;51.458;7.000;2023-07-16T10:32:39;24.00;59.40
37974;DHT22;23796;51.458;7.000;2023-07-16T10:35:06;24.00;59.50
37974;DHT22;23796;51.458;7.000;2023-07-16T10:37:35;24.10;59.70
37974;DHT22;23796;51.458;7.000;2023-07-16T10:40:01;24.20;58.60
37974;DHT22;23796;51.458;7.000;2023-07-16T10:42:30;24.20;58.90
37974;DHT22;23796;51.458;7.000;2023-07-16T10:45:03;24.40;58.10
37974;DHT22;23796;51.458;7.000;2023-07-16T10:47:31;24.30;58.20
37974;DHT22;23796;51.458;7.000;2023-07-16T10:50:00;24.40;58.20
37974;DHT22;23796;51.458;7.000;2023-07-16T10:52:26;24.90;57.60
37974;DHT22;23796;51.458;7.000;2023-07-16T10:54:53;24.70;57.10
37974;DHT22;23796;51.458;7.000;2023-07-16T10:57:26;24.70;57.60
37974;DHT22;23796;51.458;7.000;2023-07-16T10:59:57;24.70;57.70
37974;DHT22;23796;51.458;7.000;2023-07-16T11:02:26;24.80;57.70
37974;DHT22;23796;51.458;7.000;2023-07-16T11:04:52;24.90;57.50
37974;DHT22;23796;51.458;7.000;2023-07-16T11:07:26;24.90;57.80
37974;DHT22;23796;51.458;7.000;2023-07-16T11:09:54;24.80;57.60
37974;DHT22;23796;51.458;7.000;2023-07-16T11:12:23;24.90;57.90
37974;DHT22;23796;51.458;7.000;2023-07-16T11:14:54;24.90;57.50
37974;DHT22;23796;51.458;7.000;2023-07-16T11:17:24;24.90;57.70
37974;DHT22;23796;51.458;7.000;2023-07-16T11:19:53;24.80;58.00
37974;DHT22;23796;51.458;7.000;2023-07-16T11:22:25;24.50;58.00
37974;DHT22;23796;51.458;7.000;2023-07-16T11:24:59;24.40;58.20
37974;DHT22;23796;51.458;7.000;2023-07-16T11:27:26;24.50;58.00
37974;DHT22;23796;51.458;7.000;2023-07-16T11:29:54;24.40;58.10
37974;DHT22;23796;51.458;7.000;2023-07-16T11:34:58;24.70;57.50
37974;DHT22;23796;51.458;7.000;2023-07-16T11:37:28;24.70;57.60
37974;DHT22;23796;51.458;7.000;2023-07-16T11:39:58;24.90;57.70
37974;DHT22;23796;51.458;7.000;2023-07-16T11:42:38;24.90;57.60
37974;DHT22;23796;51.458;7.000;2023-07-16T11:45:17;24.70;57.50
37974;DHT22;23796;51.458;7.000;2023-07-16T11:47:43;24.50;58.10
37974;DHT22;23796;51.458;7.000;2023-07-16T11:50:09;24.60;58.20
37974;DHT22;23796;51.458;7.000;2023-07-16T11:52:38;24.60;57.70
37974;DHT22;23796;51.458;7.000;2023-07-16T11:55:04;24.80;57.50
37974;DHT22;23796;51.458;7.000;2023-07-16T11:57:33;24.80;57.30
37974;DHT22;23796;51.458;7.000;2023-07-16T12:00:01;24.80;57.10
37974;DHT22;23796;51.458;7.000;2023-07-16T12:02:29;24.80;57.40
37974;DHT22;23796;51.458;7.000;2023-07-16T12:04:57;24.70;56.90
37974;DHT22;23796;51.458;7.000;2023-07-16T12:07:32;24.60;57.20
37974;DHT22;23796;51.458;7.000;2023-07-16T12:09:58;24.80;56.90
37974;DHT22;23796;51.458;7.000;2023-07-16T12:12:26;25.00;56.50
37974;DHT22;23796;51.458;7.000;2023-07-16T12:14:51;25.00;56.70
37974;DHT22;23796;51.458;7.000;2023-07-16T12:17:17;25.00;56.60
37974;DHT22;23796;51.458;7.000;2023-07-16T12:19:43;25.20;56.80
37974;DHT22;23796;51.458;7.000;2023-07-16T12:22:09;25.10;56.20
37974;DHT22;23796;51.458;7.000;2023-07-16T12:24:34;25.10;56.40
37974;DHT22;23796;51.458;7.000;2023-07-16T12:27:00;25.00;56.10
37974;DHT22;23796;51.458;7.000;2023-07-16T12:29:28;24.90;56.60
37974;DHT22;23796;51.458;7.000;2023-07-16T12:31:58;24.90;56.60
37974;DHT22;23796;51.458;7.000;2023-07-16T12:34:25;24.80;57.30
37974;DHT22;23796;51.458;7.000;2023-07-16T12:36:53;24.70;57.70
37974;DHT22;23796;51.458;7.000;2023-07-16T12:39:19;24.80;57.60
37974;DHT22;23796;51.458;7.000;2023-07-16T12:41:45;24.60;58.00
37974;DHT22;23796;51.458;7.000;2023-07-16T12:44:11;24.80;57.70
37974;DHT22;23796;51.458;7.000;2023-07-16T12:46:39;24.80;57.80
37974;DHT22;23796;51.458;7.000;2023-07-16T12:49:05;24.80;58.00
37974;DHT22;23796;51.458;7.000;2023-07-16T12:51:32;24.70;57.60
37974;DHT22;23796;51.458;7.000;2023-07-16T12:54:00;24.70;57.80
37974;DHT22;23796;51.458;7.000;2023-07-16T12:56:26;24.70;57.50
37974;DHT22;23796;51.458;7.000;2023-07-16T12:58:52;24.80;57.40
37974;DHT22;23796;51.458;7.000;2023-07-16T13:01:18;24.60;57.70
37974;DHT22;23796;51.458;7.000;2023-07-16T13:03:46;25.00;57.10
37974;DHT22;23796;51.458;7.000;2023-07-16T13:06:11;25.20;56.40
37974;DHT22;23796;51.458;7.000;2023-07-16T13:08:37;25.30;56.40
37974;DHT22;23796;51.458;7.000;2023-07-16T13:11:02;25.10;56.40
37974;DHT22;23796;51.458;7.000;2023-07-16T13:13:28;25.40;56.50
37974;DHT22;23796;51.458;7.000;2023-07-16T13:15:56;25.80;55.80
37974;DHT22;23796;51.458;7.000;2023-07-16T13:18:25;26.10;54.80
37974;DHT22;23796;51.458;7.000;2023-07-16T13:20:53;26.40;54.50
37974;DHT22;23796;51.458;7.000;2023-07-16T13:23:18;26.40;54.60
37974;DHT22;23796;51.458;7.000;2023-07-16T13:25:44;26.60;54.10
37974;DHT22;23796;51.458;7.000;2023-07-16T13:28:12;26.50;54.20
37974;DHT22;23796;51.458;7.000;2023-07-16T13:30:37;26.50;54.60
37974;DHT22;23796;51.458;7.000;2023-07-16T13:33:03;26.40;53.50
37974;DHT22;23796;51.458;7.000;2023-07-16T13:35:31;26.10;54.50
37974;DHT22;23796;51.458;7.000;2023-07-16T13:37:57;26.10;54.90
37974;DHT22;23796;51.458;7.000;2023-07-16T13:40:22;26.20;54.50
37974;DHT22;23796;51.458;7.000;2023-07-16T13:42:50;26.30;54.70
37974;DHT22;23796;51.458;7.000;2023-07-16T13:45:16;26.40;54.40
37974;DHT22;23796;51.458;7.000;2023-07-16T13:47:42;26.20;54.70
37974;DHT22;23796;51.458;7.000;2023-07-16T13:50:10;26.20;54.80
37974;DHT22;23796;51.458;7.000;2023-07-16T13:52:38;26.20;54.30
37974;DHT22;23796;51.458;7.000;2023-07-16T13:55:07;26.20;54.00
37974;DHT22;23796;51.458;7.000;2023-07-16T13:57:33;26.10;54.40
37974;DHT22;23796;51.458;7.000;2023-07-16T13:59:58;25.90;55.20
37974;DHT22;23796;51.458;7.000;2023-07-16T14:02:25;26.20;54.90
37974;DHT22;23796;51.458;7.000;2023-07-16T14:04:51;26.30;54.80
37974;DHT22;23796;51.458;7.000;2023-07-16T14:07:16;26.10;55.20
37974;DHT22;23796;51.458;7.000;2023-07-16T14:09:42;26.10;55.40
37974;DHT22;23796;51.458;7.000;2023-07-16T14:12:08;25.50;56.00
37974;DHT22;23796;51.458;7.000;2023-07-16T14:14:33;25.10;56.70
37974;DHT22;23796;51.458;7.000;2023-07-16T14:16:59;25.00;57.80
37974;DHT22;23796;51.458;7.000;2023-07-16T14:19:24;25.10;57.20
37974;DHT22;23796;51.458;7.000;2023-07-16T14:21:53;25.50;56.60
37974;DHT22;23796;51.458;7.000;2023-07-16T14:24:18;25.90;55.70
37974;DHT22;23796;51.458;7.000;2023-07-16T14:26:44;25.90;55.20
37974;DHT22;23796;51.458;7.000;2023-07-16T14:29:14;25.90;55.10
37974;DHT22;23796;51.458;7.000;2023-07-16T14:31:42;25.60;56.10
37974;DHT22;23796;51.458;7.000;2023-07-16T14:34:08;25.80;55.30
37974;DHT22;23796;51.458;7.000;2023-07-16T14:36:34;26.00;54.90
37974;DHT22;23796;51.458;7.000;2023-07-16T14:38:59;26.20;54.30
37974;DHT22;23796;51.458;7.000;2023-07-16T14:41:25;26.40;53.90
37974;DHT22;23796;51.458;7.000;2023-07-16T14:43:53;26.50;53.70
37974;DHT22;23796;51.458;7.000;2023-07-16T14:46:19;26.40;53.80
37974;DHT22;23796;51.458;7.000;2023-07-16T14:48:44;26.50;52.90
37974;DHT22;23796;51.458;7.000;2023-07-16T14:51:13;26.50;53.50
37974;DHT22;23796;51.458;7.000;2023-07-16T14:53:39;26.70;53.30
37974;DHT22;23796;51.458;7.000;2023-07-16T14:56:04;26.80;53.00
37974;DHT22;23796;51.458;7.000;2023-07-16T14:58:33;26.70;53.80
37974;DHT22;23796;51.458;7.000;2023-07-16T15:01:02;26.70;52.90
37974;DHT22;23796;51.458;7.000;2023-07-16T15:03:35;26.60;52.40
37974;DHT22;23796;51.458;7.000;2023-07-16T15:06:01;26.70;52.20
37974;DHT22;23796;51.458;7.000;2023-07-16T15:08:27;26.90;51.90
37974;DHT22;23796;51.458;7.000;2023-07-16T15:10:55;27.00;52.00
37974;DHT22;23796;51.458;7.000;2023-07-16T15:13:22;27.00;51.90
37974;DHT22;23796;51.458;7.000;2023-07-16T15:15:53;27.00;52.20
37974;DHT22;23796;51.458;7.000;2023-07-16T15:18:20;26.70;51.90
37974;DHT22;23796;51.458;7.000;2023-07-16T15:20:49;26.50;52.20
37974;DHT22;23796;51.458;7.000;2023-07-16T15:23:17;26.40;52.50
37974;DHT22;23796;51.458;7.000;2023-07-16T15:25:45;26.50;52.40
37974;DHT22;23796;51.458;7.000;2023-07-16T15:28:11;26.50;52.40
37974;DHT22;23796;51.458;7.000;2023-07-16T15:30:39;26.50;52.30
37974;DHT22;23796;51.458;7.000;2023-07-16T15:33:04;26.30;52.00
37974;DHT22;23796;51.458;7.000;2023-07-16T15:35:32;26.20;52.70
37974;DHT22;23796;51.458;7.000;2023-07-16T15:38:03;26.00;52.80
37974;DHT22;23796;51.458;7.000;2023-07-16T15:40:34;25.80;53.30
37974;DHT22;23796;51.458;7.000;2023-07-16T15:43:00;26.00;53.40
37974;DHT22;23796;51.458;7.000;2023-07-16T15:45:28;26.20;52.90